Time;durP1;ratioP1;P1;durP2;ratioP2;P2;SDS_P1;SDS_P2;PMS_P1;PMS_P2;Temp;Humidity;BMP_temperature;BMP_pressure;BME280_temperature;BME280_humidity;BME280_pressure;Samples;Min_cycle;Max_cycle;Signal;HPM_P1;HPM_P2
2022/08/27 00:00:39;;;;;;;;;;;;;;;-144.99;100.00;52252.44;4980771;28;20614;-76
2022/08/27 00:03:08;;;;;;;;;;;;;;;-144.99;100.00;52252.44;4984596;28;21845;-77
2022/08/27 00:05:35;;;;;;;;;;;;;;;-144.99;100.00;52276.88;4984765;28;19930;-76
2022/08/27 00:08:02;;;;;;;;;;;;;;;-144.99;100.00;52270.78;4991587;28;19930;-80
2022/08/27 00:10:29;;;;;;;;;;;;;;;-144.99;100.00;52260.56;4982034;28;19930;-79
2022/08/27 00:12:56;;;;;;;;;;;;;;;-144.99;100.00;52264.66;4984736;28;19974;-78
2022/08/27 00:15:23;;;;;;;;;;;;;;;-144.99;100.00;52260.56;4986528;28;20021;-79
2022/08/27 00:17:50;;;;;;;;;;;;;;;-144.99;100.00;52264.66;4982990;28;19930;-79
2022/08/27 00:20:18;;;;;;;;;;;;;;;-144.99;100.00;52268.72;4981205;28;19930;-79
2022/08/27 00:22:44;;;;;;;;;;;;;;;-144.99;100.00;52264.66;4986866;28;19925;-79
2022/08/27 00:25:11;;;;;;;;;;;;;;;-144.99;100.00;52268.72;4982556;28;19926;-78
2022/08/27 00:27:38;;;;;;;;;;;;;;;-144.99;100.00;52276.88;4984503;28;19927;-80
2022/08/27 00:30:08;;;;;;;;;;;;;;;-144.99;100.00;52280.97;4637819;28;9999771;-77
2022/08/27 00:32:34;;;;;;;;;;;;;;;-144.99;100.00;52280.97;4991446;28;19926;-81
2022/08/27 00:35:00;;;;;;;;;;;;;;;-144.99;100.00;52248.34;4997640;28;20040;-81
2022/08/27 00:39:56;;;;;;;;;;;;;;;-144.99;100.00;52227.97;4972811;28;19926;-75
2022/08/27 00:42:23;;;;;;;;;;;;;;;-144.99;100.00;52276.88;4975645;28;20029;-73
2022/08/27 00:44:49;;;;;;;;;;;;;;;-144.99;100.00;52287.06;4982410;28;20316;-75
2022/08/27 00:47:20;;;;;;;;;;;;;;;-144.99;100.00;52285.03;4986631;28;20087;-76
2022/08/27 00:49:47;;;;;;;;;;;;;;;-144.99;100.00;52264.66;4977340;28;20044;-76
2022/08/27 00:52:25;;;;;;;;;;;;;;;-144.99;100.00;52266.69;4978237;28;19933;-75
2022/08/27 00:54:56;;;;;;;;;;;;;;;-144.99;100.00;52252.44;4978978;28;19926;-76
2022/08/27 00:57:22;;;;;;;;;;;;;;;-144.99;100.00;52258.53;4984546;28;19926;-76
2022/08/27 00:59:49;;;;;;;;;;;;;;;-144.99;100.00;52293.19;4989903;28;20368;-76
2022/08/27 01:02:20;;;;;;;;;;;;;;;-144.99;100.00;52301.34;4980816;28;19926;-76
2022/08/27 01:04:48;;;;;;;;;;;;;;;-144.99;100.00;52256.50;4978749;28;19926;-76
2022/08/27 01:07:14;;;;;;;;;;;;;;;-144.99;100.00;52268.72;4978839;28;20461;-76
2022/08/27 01:09:42;;;;;;;;;;;;;;;-144.99;100.00;52260.56;4978419;28;19936;-76
2022/08/27 01:12:10;;;;;;;;;;;;;;;-144.99;100.00;52276.88;4979455;28;19941;-74
2022/08/27 01:14:37;;;;;;;;;;;;;;;-144.99;100.00;52301.34;4976696;28;19932;-74
2022/08/27 01:17:04;;;;;;;;;;;;;;;-144.99;100.00;52262.63;4980319;28;19949;-75
2022/08/27 01:19:34;;;;;;;;;;;;;;;-144.99;100.00;52285.03;4984436;28;19926;-76
2022/08/27 01:22:04;;;;;;;;;;;;;;;-144.99;100.00;52256.50;4984956;28;20013;-75
2022/08/27 01:24:34;;;;;;;;;;;;;;;-144.99;100.00;52285.03;4981028;28;20321;-75
2022/08/27 01:27:02;;;;;;;;;;;;;;;-144.99;100.00;52309.50;4973447;28;20452;-75
2022/08/27 01:29:29;;;;;;;;;;;;;;;-144.99;100.00;52260.56;4987412;28;19926;-75
2022/08/27 01:31:59;;;;;;;;;;;;;;;-144.99;100.00;52260.56;4976664;28;19932;-75
2022/08/27 01:34:25;;;;;;;;;;;;;;;-144.99;100.00;52268.72;4983058;28;20012;-75
2022/08/27 01:36:52;;;;;;;;;;;;;;;-144.99;100.00;52276.88;4974032;28;20566;-75
2022/08/27 01:39:18;;;;;;;;;;;;;;;-144.99;100.00;52248.34;4981165;28;19938;-72
2022/08/27 01:41:46;;;;;;;;;;;;;;;-144.99;100.00;52301.34;4982754;28;19932;-75
2022/08/27 01:44:12;;;;;;;;;;;;;;;-144.99;100.00;52248.34;4984763;28;19980;-74
2022/08/27 01:46:39;;;;;;;;;;;;;;;-144.99;100.00;52252.44;4977975;28;19932;-74
2022/08/27 01:49:05;;;;;;;;;;;;;;;-144.99;100.00;52256.50;4974191;28;20789;-74
2022/08/27 01:51:32;;;;;;;;;;;;;;;-144.99;100.00;52280.97;4981430;28;19934;-72
2022/08/27 01:53:58;;;;;;;;;;;;;;;-144.99;100.00;52268.72;4976714;28;19936;-72
2022/08/27 01:56:25;;;;;;;;;;;;;;;-144.99;100.00;52276.88;4984397;28;19925;-73
2022/08/27 01:58:53;;;;;;;;;;;;;;;-144.99;100.00;52278.91;4976770;28;19933;-73
2022/08/27 02:01:19;;;;;;;;;;;;;;;-144.99;100.00;52285.03;4983692;28;20019;-73
2022/08/27 02:03:47;;;;;;;;;;;;;;;-144.99;100.00;52270.78;4978897;28;20029;-74
2022/08/27 02:06:14;;;;;;;;;;;;;;;-144.99;100.00;52276.88;4976492;28;20000;-72
2022/08/27 02:08:40;;;;;;;;;;;;;;;-144.99;100.00;52287.06;4973599;28;19940;-72
2022/08/27 02:11:08;;;;;;;;;;;;;;;-144.99;100.00;52252.44;4975403;28;19934;-74
2022/08/27 02:13:34;;;;;;;;;;;;;;;-144.99;100.00;52301.34;4977329;28;19926;-75
2022/08/27 02:16:02;;;;;;;;;;;;;;;-144.99;100.00;52309.50;4984374;28;20084;-75
2022/08/27 02:18:28;;;;;;;;;;;;;;;-144.99;100.00;52305.41;4976646;28;19925;-74
2022/08/27 02:20:55;;;;;;;;;;;;;;;-144.99;100.00;52280.97;4980987;28;19932;-74
2022/08/27 02:23:21;;;;;;;;;;;;;;;-144.99;100.00;52285.03;4978798;28;20377;-75
2022/08/27 02:25:48;;;;;;;;;;;;;;;-144.99;100.00;52285.03;4976987;28;19926;-72
2022/08/27 02:28:14;;;;;;;;;;;;;;;-144.99;100.00;52244.28;4979497;28;20409;-75
2022/08/27 02:30:41;;;;;;;;;;;;;;;-144.99;100.00;52317.66;4981891;28;19930;-76
2022/08/27 02:33:09;;;;;;;;;;;;;;;-144.99;100.00;52262.63;4985878;28;19925;-75
2022/08/27 02:35:37;;;;;;;;;;;;;;;-144.99;99.95;52264.66;4986454;28;19949;-78
2022/08/27 02:38:04;;;;;;;;;;;;;;;-144.99;99.72;52283.00;4979403;28;19925;-77
2022/08/27 02:40:30;;;;;;;;;;;;;;;-144.99;99.60;52260.56;4984447;28;20412;-77
2022/08/27 02:42:57;;;;;;;;;;;;;;;-144.99;99.93;52264.66;4982176;28;19926;-77
2022/08/27 02:45:23;;;;;;;;;;;;;;;-144.99;99.70;52295.22;4982089;28;19933;-77
2022/08/27 02:47:50;;;;;;;;;;;;;;;-144.99;99.37;52240.19;4985363;28;19926;-76
2022/08/27 02:50:17;;;;;;;;;;;;;;;-144.99;99.51;52309.50;4977098;28;20438;-77
2022/08/27 02:52:45;;;;;;;;;;;;;;;-144.99;99.53;52289.13;4979112;28;20324;-75
2022/08/27 02:55:11;;;;;;;;;;;;;;;-144.99;99.55;52248.34;4978620;28;19930;-76
2022/08/27 02:57:38;;;;;;;;;;;;;;;-144.99;99.76;52287.06;4981059;28;19937;-77
2022/08/27 03:00:05;;;;;;;;;;;;;;;-144.99;99.37;52276.88;4984679;28;19926;-77
2022/08/27 03:02:31;;;;;;;;;;;;;;;-144.99;99.29;52248.34;4977327;28;20012;-76
2022/08/27 03:04:57;;;;;;;;;;;;;;;-144.99;99.23;52280.97;4977915;28;20458;-75
2022/08/27 03:07:25;;;;;;;;;;;;;;;-144.99;99.25;52280.97;4975528;28;19926;-74
2022/08/27 03:09:52;;;;;;;;;;;;;;;-144.99;99.37;52299.31;4981491;28;19951;-76
2022/08/27 03:12:18;;;;;;;;;;;;;;;-144.99;99.78;52293.19;4980453;28;20314;-75
2022/08/27 03:14:44;;;;;;;;;;;;;;;-144.99;99.73;52268.72;4980538;28;19930;-76
2022/08/27 03:19:54;;;;;;;;;;;;;;;-144.99;99.45;52309.50;4976231;28;19937;-74
2022/08/27 03:22:21;;;;;;;;;;;;;;;-144.99;99.44;52244.28;4974453;28;19934;-74
2022/08/27 03:24:49;;;;;;;;;;;;;;;-144.99;99.06;52276.88;4981326;28;19948;-74
2022/08/27 03:27:15;;;;;;;;;;;;;;;-144.99;99.57;52280.97;4973414;28;20471;-74
2022/08/27 03:29:41;;;;;;;;;;;;;;;-144.99;99.71;52260.56;4980425;28;19926;-74
2022/08/27 03:32:08;;;;;;;;;;;;;;;-144.99;99.53;52291.16;4976214;28;19937;-77
2022/08/27 03:34:34;;;;;;;;;;;;;;;-144.99;99.38;52276.88;4984649;28;20029;-75
2022/08/27 03:37:01;;;;;;;;;;;;;;;-144.99;99.31;52230.00;4977360;28;20437;-74
2022/08/27 03:39:27;;;;;;;;;;;;;;;-144.99;99.45;52276.88;4974635;28;20255;-76
2022/08/27 03:41:55;;;;;;;;;;;;;;;-144.99;99.57;52240.19;4974565;28;20590;-75
2022/08/27 03:44:21;;;;;;;;;;;;;;;-144.99;99.46;52309.50;4982376;28;19937;-74
2022/08/27 03:46:47;;;;;;;;;;;;;;;-144.99;99.76;52276.88;4981828;28;20009;-74
2022/08/27 03:49:14;;;;;;;;;;;;;;;-144.99;99.53;52262.63;4984562;28;20021;-76
2022/08/27 03:51:40;;;;;;;;;;;;;;;-144.99;99.55;52317.66;4981471;28;19926;-76
2022/08/27 03:54:06;;;;;;;;;;;;;;;-144.99;99.46;52309.50;4978087;28;19926;-75
2022/08/27 03:56:38;;;;;;;;;;;;;;;-144.99;99.66;52297.25;4977748;28;19930;-75
2022/08/27 03:59:06;;;;;;;;;;;;;;;-144.99;99.57;52299.31;4987439;28;19926;-75
2022/08/27 04:01:33;;;;;;;;;;;;;;;-144.99;99.52;52317.66;4980828;28;20553;-75
2022/08/27 04:03:59;;;;;;;;;;;;;;;-144.99;99.29;52287.06;4978224;28;20290;-74
2022/08/27 04:06:27;;;;;;;;;;;;;;;-144.99;98.80;52297.25;4982147;28;19941;-74
2022/08/27 04:08:53;;;;;;;;;;;;;;;-144.99;98.90;52268.72;4973716;28;20302;-75
2022/08/27 04:11:20;;;;;;;;;;;;;;;-144.99;98.92;52280.97;4978018;28;19925;-74
2022/08/27 04:13:47;;;;;;;;;;;;;;;-144.99;99.04;52303.38;4975437;28;19933;-74
2022/08/27 04:16:14;;;;;;;;;;;;;;;-144.99;99.52;52293.19;4979664;28;19976;-74
2022/08/27 04:18:41;;;;;;;;;;;;;;;-144.99;99.27;52276.88;4975185;28;19926;-75
2022/08/27 04:21:08;;;;;;;;;;;;;;;-144.99;99.66;52305.41;4981267;28;20366;-74
2022/08/27 04:23:35;;;;;;;;;;;;;;;-144.99;99.49;52252.44;4975457;28;19934;-72
2022/08/27 04:26:04;;;;;;;;;;;;;;;-144.99;99.60;52283.00;4978759;28;20309;-74
2022/08/27 04:28:30;;;;;;;;;;;;;;;-144.99;99.34;52301.34;4977573;28;21728;-75
2022/08/27 04:30:57;;;;;;;;;;;;;;;-144.99;99.41;52256.50;4976768;28;19936;-75
2022/08/27 04:33:24;;;;;;;;;;;;;;;-144.99;99.41;52280.97;4975602;28;20020;-75
2022/08/27 04:35:57;;;;;;;;;;;;;;;-144.99;99.25;52268.72;4977544;28;20325;-73
2022/08/27 04:38:23;;;;;;;;;;;;;;;-144.99;99.05;52285.03;4975437;28;19934;-74
2022/08/27 04:43:33;;;;;;;;;;;;;;;-144.99;98.67;52309.50;4972580;28;19937;-74
2022/08/27 04:46:00;;;;;;;;;;;;;;;-144.99;98.65;52325.81;4978176;28;20515;-74
2022/08/27 04:48:28;;;;;;;;;;;;;;;-144.99;98.58;52301.34;4974589;28;19987;-76
2022/08/27 04:50:54;;;;;;;;;;;;;;;-144.99;98.78;52280.97;4983155;28;19933;-73
2022/08/27 04:53:21;;;;;;;;;;;;;;;-144.99;98.67;52264.66;4980373;28;19926;-74
2022/08/27 04:55:49;;;;;;;;;;;;;;;-144.99;98.44;52285.03;4977143;28;19959;-76
2022/08/27 04:58:16;;;;;;;;;;;;;;;-144.99;98.58;52305.41;4975878;28;20031;-75
2022/08/27 05:00:43;;;;;;;;;;;;;;;-144.99;98.76;52293.19;4986751;28;19925;-76
2022/08/27 05:03:10;;;;;;;;;;;;;;;-144.99;98.90;52293.19;4988631;28;19992;-74
2022/08/27 05:05:38;;;;;;;;;;;;;;;-144.99;98.64;52272.81;4984935;28;19932;-75
2022/08/27 05:08:05;;;;;;;;;;;;;;;-144.99;98.82;52293.19;4977648;28;19926;-75
2022/08/27 05:10:38;;;;;;;;;;;;;;;-144.99;98.89;52309.50;4981286;28;19933;-74
2022/08/27 05:13:04;;;;;;;;;;;;;;;-144.99;99.12;52289.13;4977169;28;19926;-75
2022/08/27 05:15:31;;;;;;;;;;;;;;;-144.99;99.43;52315.59;4980387;28;19934;-72
2022/08/27 05:17:59;;;;;;;;;;;;;;;-144.99;99.30;52268.72;4989605;28;19940;-73
2022/08/27 05:20:25;;;;;;;;;;;;;;;-144.99;99.20;52268.72;4985808;28;19933;-74
2022/08/27 05:22:53;;;;;;;;;;;;;;;-144.99;99.19;52270.78;4981091;28;19932;-74
2022/08/27 05:25:20;;;;;;;;;;;;;;;-144.99;98.96;52297.25;4981805;28;19930;-74
2022/08/27 05:27:46;;;;;;;;;;;;;;;-144.99;98.80;52317.66;4982064;28;19925;-73
2022/08/27 05:30:12;;;;;;;;;;;;;;;-144.99;98.72;52309.50;4985598;28;19929;-73
2022/08/27 05:32:39;;;;;;;;;;;;;;;-144.99;98.44;52264.66;4980914;28;19933;-74
2022/08/27 05:35:06;;;;;;;;;;;;;;;-144.99;98.18;52280.97;4986968;28;20420;-73
2022/08/27 05:37:33;;;;;;;;;;;;;;;-144.99;98.05;52309.50;4981064;28;19948;-72
2022/08/27 05:40:01;;;;;;;;;;;;;;;-144.99;97.82;52307.47;4990391;28;19969;-74
2022/08/27 05:42:29;;;;;;;;;;;;;;;-144.99;97.95;52289.13;4984099;28;19933;-73
2022/08/27 05:44:55;;;;;;;;;;;;;;;-144.99;98.02;52309.50;4979295;28;19933;-70
2022/08/27 05:47:21;;;;;;;;;;;;;;;-144.99;97.99;52313.56;4987720;28;20332;-74
2022/08/27 05:49:49;;;;;;;;;;;;;;;-144.99;97.94;52276.88;4981957;28;19926;-74
2022/08/27 05:52:15;;;;;;;;;;;;;;;-144.99;97.85;52285.03;4984595;28;19950;-75
2022/08/27 05:54:42;;;;;;;;;;;;;;;-144.99;97.67;52301.34;4980116;28;20029;-75
2022/08/27 05:57:09;;;;;;;;;;;;;;;-144.99;97.65;52301.34;4981850;28;19934;-76
2022/08/27 06:02:35;;;;;;;;;;;;;;;-144.99;97.58;52329.88;4964164;28;20016;-75
2022/08/27 06:05:02;;;;;;;;;;;;;;;-144.99;97.60;52333.94;4982689;28;20477;-75
2022/08/27 06:07:29;;;;;;;;;;;;;;;-144.99;97.53;52280.97;4987220;28;20357;-74
2022/08/27 06:09:57;;;;;;;;;;;;;;;-144.99;97.69;52289.13;4981684;28;19926;-75
2022/08/27 06:12:25;;;;;;;;;;;;;;;-144.99;97.90;52285.03;4986188;28;20008;-75
2022/08/27 06:14:51;;;;;;;;;;;;;;;-144.99;97.62;52313.56;4984284;28;19981;-75
2022/08/27 06:17:18;;;;;;;;;;;;;;;-144.99;97.02;52289.13;4985897;28;20457;-76
2022/08/27 06:19:44;;;;;;;;;;;;;;;-144.99;97.37;52303.38;4986233;28;19933;-75
2022/08/27 06:22:11;;;;;;;;;;;;;;;-144.99;97.38;52305.41;4989286;28;19926;-76
2022/08/27 06:24:38;;;;;;;;;;;;;;;-144.99;97.03;52317.66;4993430;28;20016;-75
2022/08/27 06:27:05;;;;;;;;;;;;;;;-144.99;96.72;52283.00;4991578;28;20044;-75
2022/08/27 06:29:33;;;;;;;;;;;;;;;-144.99;96.77;52293.19;4992789;28;20040;-74
2022/08/27 06:32:00;;;;;;;;;;;;;;;-144.99;96.80;52268.72;4990877;28;19933;-73
2022/08/27 06:34:26;;;;;;;;;;;;;;;-144.99;96.43;52295.22;4990110;28;19926;-76
2022/08/27 06:36:53;;;;;;;;;;;;;;;-144.99;96.30;52285.03;4986951;28;19925;-75
2022/08/27 06:39:20;;;;;;;;;;;;;;;-144.99;95.92;52313.56;4987914;28;19930;-74
2022/08/27 06:41:49;;;;;;;;;;;;;;;-144.99;95.59;52303.38;4989046;28;20017;-77
2022/08/27 06:44:16;;;;;;;;;;;;;;;-144.99;95.35;52285.03;4991475;28;19929;-75
2022/08/27 06:46:44;;;;;;;;;;;;;;;-144.99;95.07;52325.81;4990531;28;19933;-77
2022/08/27 06:49:11;;;;;;;;;;;;;;;-144.99;94.72;52311.53;4987505;28;19932;-76
2022/08/27 06:51:38;;;;;;;;;;;;;;;-144.99;94.06;52276.88;4985274;28;20425;-76
2022/08/27 06:54:06;;;;;;;;;;;;;;;-144.99;93.29;52313.56;4988563;28;19949;-74
2022/08/27 06:56:33;;;;;;;;;;;;;;;-144.99;92.38;52309.50;4986548;28;19926;-73
2022/08/27 06:59:00;;;;;;;;;;;;;;;-144.99;92.76;52313.56;4987990;28;19926;-74
2022/08/27 07:01:28;;;;;;;;;;;;;;;-144.99;92.07;52293.19;4986252;28;19933;-75
2022/08/27 07:03:57;;;;;;;;;;;;;;;-144.99;91.89;52260.56;4988723;28;19926;-74
2022/08/27 07:06:23;;;;;;;;;;;;;;;-144.99;91.12;52285.03;4988662;28;19930;-75
2022/08/27 07:08:50;;;;;;;;;;;;;;;-144.99;91.58;52338.03;4986705;28;19945;-74
2022/08/27 07:11:16;;;;;;;;;;;;;;;-144.99;91.55;52307.47;4986765;28;20033;-73
2022/08/27 07:13:45;;;;;;;;;;;;;;;-144.99;91.54;52297.25;4988498;28;20080;-74
2022/08/27 07:16:15;;;;;;;;;;;;;;;-144.99;91.79;52268.72;4986149;28;20023;-75
2022/08/27 07:18:41;;;;;;;;;;;;;;;-144.99;92.01;52297.25;4987913;28;19932;-73
2022/08/27 07:21:09;;;;;;;;;;;;;;;-144.99;91.77;52317.66;4987132;28;19926;-73
2022/08/27 07:23:37;;;;;;;;;;;;;;;-144.99;91.95;52285.03;4985518;28;20339;-76
2022/08/27 07:26:06;;;;;;;;;;;;;;;-144.99;91.71;52256.50;4987621;28;19925;-74
2022/08/27 07:28:33;;;;;;;;;;;;;;;-144.99;91.97;52301.34;4986478;28;19926;-74
2022/08/27 07:30:59;;;;;;;;;;;;;;;-144.99;92.40;52301.34;4988765;28;20025;-77
2022/08/27 07:33:26;;;;;;;;;;;;;;;-144.99;92.94;52299.31;4978447;28;19930;-76
2022/08/27 07:35:52;;;;;;;;;;;;;;;-144.99;93.28;52264.66;4990929;28;20068;-77
2022/08/27 07:38:20;;;;;;;;;;;;;;;-144.99;93.22;52289.13;4993690;28;19984;-77
2022/08/27 07:40:46;;;;;;;;;;;;;;;-144.99;93.50;52338.03;4986567;28;20468;-77
2022/08/27 07:46:00;;;;;;;;;;;;;;;-144.99;92.35;52268.72;4986712;28;20333;-73
2022/08/27 07:48:26;;;;;;;;;;;;;;;-144.99;92.21;52317.66;4986029;28;20021;-73
2022/08/27 07:50:54;;;;;;;;;;;;;;;-144.99;91.46;52260.56;4988349;28;19934;-73
2022/08/27 07:53:22;;;;;;;;;;;;;;;-144.99;91.28;52329.88;4985731;28;19930;-74
2022/08/27 07:55:48;;;;;;;;;;;;;;;-144.99;91.01;52305.41;4985548;28;19926;-71
2022/08/27 07:58:14;;;;;;;;;;;;;;;-144.99;90.78;52270.78;4985512;28;20016;-70
2022/08/27 08:00:41;;;;;;;;;;;;;;;-144.99;90.35;52293.19;4985614;28;20424;-73
2022/08/27 08:03:08;;;;;;;;;;;;;;;-144.99;89.69;52305.41;4981514;28;20579;-72
2022/08/27 08:05:34;;;;;;;;;;;;;;;-144.99;89.25;52309.50;4985353;28;19925;-71
2022/08/27 08:08:01;;;;;;;;;;;;;;;-144.99;88.49;52266.69;4985048;28;19936;-71
2022/08/27 08:10:29;;;;;;;;;;;;;;;-144.99;87.16;52256.50;4986603;28;19926;-72
2022/08/27 08:12:55;;;;;;;;;;;;;;;-144.99;87.14;52305.41;4983471;28;19925;-73
2022/08/27 08:15:21;;;;;;;;;;;;;;;-144.99;87.10;52305.41;4985965;28;19941;-72
2022/08/27 08:17:48;;;;;;;;;;;;;;;-144.99;87.16;52297.25;4984298;28;20409;-71
2022/08/27 08:20:15;;;;;;;;;;;;;;;-144.99;87.66;52280.97;4983219;28;19926;-72
2022/08/27 08:22:42;;;;;;;;;;;;;;;-144.99;87.77;52280.97;4984979;28;19937;-75
2022/08/27 08:25:09;;;;;;;;;;;;;;;-144.99;87.68;52276.88;4984207;28;20432;-72
2022/08/27 08:27:36;;;;;;;;;;;;;;;-144.99;87.05;52256.50;4989802;28;20313;-73
2022/08/27 08:30:03;;;;;;;;;;;;;;;-144.99;87.23;52270.78;4989053;28;19926;-72
2022/08/27 08:32:30;;;;;;;;;;;;;;;-144.99;87.18;52276.88;4979533;28;20016;-72
2022/08/27 08:34:58;;;;;;;;;;;;;;;-144.99;86.84;52319.69;4978433;28;20745;-74
2022/08/27 08:37:25;;;;;;;;;;;;;;;-144.99;85.95;52264.66;4982589;28;19937;-74
2022/08/27 08:39:52;;;;;;;;;;;;;;;-144.99;85.93;52264.66;4983184;28;19926;-72
2022/08/27 08:42:25;;;;;;;;;;;;;;;-144.99;85.75;52268.72;4979133;28;19981;-75
2022/08/27 08:44:54;;;;;;;;;;;;;;;-144.99;85.04;52297.25;4986689;28;19926;-72
2022/08/27 08:47:23;;;;;;;;;;;;;;;-144.99;85.07;52268.72;4985133;28;19993;-72
2022/08/27 08:49:53;;;;;;;;;;;;;;;-144.99;84.93;52252.44;4980458;28;20529;-74
2022/08/27 08:52:36;;;;;;;;;;;;;;;-144.99;83.98;52293.19;4979019;28;20340;-72
2022/08/27 08:55:12;;;;;;;;;;;;;;;-144.99;83.67;52289.13;4979585;28;19934;-76
2022/08/27 08:57:40;;;;;;;;;;;;;;;-144.99;83.66;52289.13;4981732;28;20406;-76
2022/08/27 09:00:11;;;;;;;;;;;;;;;-144.99;83.62;52276.88;4983591;28;19926;-77
2022/08/27 09:02:37;;;;;;;;;;;;;;;-144.99;83.25;52256.50;4982949;28;19977;-78
2022/08/27 09:05:05;;;;;;;;;;;;;;;-144.99;83.22;52244.28;4982478;28;20025;-77
2022/08/27 09:07:35;;;;;;;;;;;;;;;-144.99;82.25;52268.72;4981279;28;20028;-76
2022/08/27 09:10:05;;;;;;;;;;;;;;;-144.99;81.20;52264.66;4982500;28;19929;-75
2022/08/27 09:12:32;;;;;;;;;;;;;;;-144.99;80.25;52280.97;4981540;28;19969;-77
2022/08/27 09:15:01;;;;;;;;;;;;;;;-144.99;80.24;52289.13;4977399;28;20401;-76
2022/08/27 09:17:29;;;;;;;;;;;;;;;-144.99;80.42;52246.31;4980479;28;20016;-77
2022/08/27 09:19:55;;;;;;;;;;;;;;;-144.99;79.79;52260.56;4981456;28;19936;-78
2022/08/27 09:22:27;;;;;;;;;;;;;;;-144.99;80.17;52293.19;4979825;28;20045;-78
2022/08/27 09:25:04;;;;;;;;;;;;;;;-144.99;80.49;52240.19;4979958;28;19942;-77
2022/08/27 09:27:31;;;;;;;;;;;;;;;-144.99;80.35;52283.00;4987968;28;19930;-76
2022/08/27 09:29:57;;;;;;;;;;;;;;;-144.99;79.29;52264.66;4994092;28;19949;-77
2022/08/27 09:32:25;;;;;;;;;;;;;;;-144.99;78.76;52276.88;4988872;28;19960;-77
2022/08/27 09:34:57;;;;;;;;;;;;;;;-144.99;78.57;52280.97;4993469;28;20024;-76
2022/08/27 09:37:25;;;;;;;;;;;;;;;-144.99;77.56;52276.88;4992083;28;19932;-77
2022/08/27 09:39:53;;;;;;;;;;;;;;;-144.99;77.02;52244.28;4985782;28;20036;-77
2022/08/27 09:42:25;;;;;;;;;;;;;;;-144.99;76.21;52268.72;4993629;28;20004;-76
2022/08/27 09:44:53;;;;;;;;;;;;;;;-144.99;76.36;52260.56;4992450;28;19973;-76
2022/08/27 09:47:19;;;;;;;;;;;;;;;-144.99;75.95;52248.34;4990193;28;20536;-76
2022/08/27 09:49:46;;;;;;;;;;;;;;;-144.99;75.88;52278.91;4991493;28;19941;-77
2022/08/27 09:52:29;;;;;;;;;;;;;;;-144.99;74.57;52293.19;4990656;28;19934;-77
2022/08/27 09:54:56;;;;;;;;;;;;;;;-144.99;75.30;52276.88;5002070;28;20044;-77
2022/08/27 09:57:30;;;;;;;;;;;;;;;-144.99;75.14;52276.88;5000289;28;19987;-77
2022/08/27 09:59:56;;;;;;;;;;;;;;;-144.99;74.96;52276.88;4994015;28;19925;-76
2022/08/27 10:02:24;;;;;;;;;;;;;;;-144.99;74.75;52297.25;4991564;28;19938;-76
2022/08/27 10:04:52;;;;;;;;;;;;;;;-144.99;74.15;52283.00;4986525;28;19948;-76
2022/08/27 10:07:30;;;;;;;;;;;;;;;-144.99;74.03;52260.56;4984490;28;19936;-75
2022/08/27 10:10:00;;;;;;;;;;;;;;;-144.99;73.33;52215.75;4991721;28;19933;-77
2022/08/27 10:12:31;;;;;;;;;;;;;;;-144.99;72.91;52278.91;4990090;28;19934;-77
2022/08/27 10:14:59;;;;;;;;;;;;;;;-144.99;72.21;52264.66;4990879;28;19937;-78
2022/08/27 10:17:31;;;;;;;;;;;;;;;-144.99;72.19;52236.13;4994701;28;19984;-78
2022/08/27 10:20:01;;;;;;;;;;;;;;;-144.99;71.35;52232.03;4995339;28;19937;-77
2022/08/27 10:22:45;;;;;;;;;;;;;;;-144.99;71.00;52258.53;4994450;28;20013;-77
2022/08/27 10:25:18;;;;;;;;;;;;;;;-144.99;68.89;52244.28;4996432;28;20603;-78
2022/08/27 10:27:50;;;;;;;;;;;;;;;-144.99;68.13;52227.97;4998824;28;20020;-77
2022/08/27 10:30:19;;;;;;;;;;;;;;;-144.99;67.38;52240.19;4998508;28;19926;-78
2022/08/27 10:32:50;;;;;;;;;;;;;;;-144.99;65.84;52242.22;4994497;28;20032;-77
2022/08/27 10:35:20;;;;;;;;;;;;;;;-144.99;65.04;52227.97;4995179;28;19932;-76
2022/08/27 10:37:58;;;;;;;;;;;;;;;-144.99;65.01;52238.16;4995843;28;20024;-77
2022/08/27 10:40:27;;;;;;;;;;;;;;;-144.99;64.42;52240.19;4985096;28;19926;-79
2022/08/27 10:43:03;;;;;;;;;;;;;;;-144.99;63.14;52244.28;4995318;28;19925;-76
2022/08/27 10:45:40;;;;;;;;;;;;;;;-144.99;61.77;52219.81;4301825;28;10000750;-79
2022/08/27 10:48:11;;;;;;;;;;;;;;;-144.99;61.01;52203.50;4989370;28;19936;-80
2022/08/27 10:50:42;;;;;;;;;;;;;;;-144.99;58.82;52211.66;4994132;28;20008;-77
2022/08/27 10:53:12;;;;;;;;;;;;;;;-144.99;57.79;52187.19;4995296;28;19961;-77
2022/08/27 10:55:40;;;;;;;;;;;;;;;-144.99;58.08;52207.59;4993617;28;19991;-78
2022/08/27 10:58:15;;;;;;;;;;;;;;;-144.99;57.42;52195.34;4996593;28;19930;-77
2022/08/27 11:00:47;;;;;;;;;;;;;;;-144.99;57.17;52183.13;4988066;28;19969;-77
2022/08/27 11:03:16;;;;;;;;;;;;;;;-144.99;56.99;52219.81;4994016;28;19914;-77
2022/08/27 11:05:45;;;;;;;;;;;;;;;-144.99;56.85;52215.75;4994648;28;19965;-79
2022/08/27 11:08:16;;;;;;;;;;;;;;;-144.99;56.99;52236.13;5000715;28;20148;-76
2022/08/27 11:10:45;;;;;;;;;;;;;;;-144.99;56.60;52183.13;5002835;28;19930;-76
2022/08/27 11:13:14;;;;;;;;;;;;;;;-144.99;56.49;52203.50;4994679;28;19993;-77
2022/08/27 11:15:43;;;;;;;;;;;;;;;-144.99;56.75;52179.06;4995422;28;20170;-78
2022/08/27 11:18:15;;;;;;;;;;;;;;;-144.99;56.36;52170.91;4992804;28;19926;-77
2022/08/27 11:20:45;;;;;;;;;;;;;;;-144.99;54.69;52191.28;4996045;28;19945;-78
2022/08/27 11:23:15;;;;;;;;;;;;;;;-144.99;54.81;52156.63;4995312;28;19930;-77
2022/08/27 11:25:45;;;;;;;;;;;;;;;-144.99;54.07;52126.06;4997577;28;20000;-77
2022/08/27 11:28:13;;;;;;;;;;;;;;;-144.99;52.71;52073.06;4997826;28;19984;-79
2022/08/27 11:30:45;;;;;;;;;;;;;;;-144.99;50.98;52093.44;4993805;28;19973;-78
2022/08/27 11:33:19;;;;;;;;;;;;;;;-144.99;48.83;52052.69;4989017;28;20001;-77
2022/08/27 11:35:55;;;;;;;;;;;;;;;-144.99;47.37;52046.56;4995024;28;19926;-77
2022/08/27 11:38:34;;;;;;;;;;;;;;;-144.99;45.79;52001.75;4994032;28;19961;-77
2022/08/27 11:41:13;;;;;;;;;;;;;;;-144.99;45.92;52071.03;4989593;28;19926;-79
2022/08/27 11:43:41;;;;;;;;;;;;;;;-144.99;45.24;52024.16;4993756;28;20349;-80
2022/08/27 11:46:08;;;;;;;;;;;;;;;-144.99;44.36;52040.47;4981746;28;20594;-78
2022/08/27 11:48:36;;;;;;;;;;;;;;;-144.99;44.13;52071.03;4996765;28;19930;-78
2022/08/27 11:51:05;;;;;;;;;;;;;;;-144.99;44.06;52040.47;4999033;28;19929;-78
2022/08/27 11:53:35;;;;;;;;;;;;;;;-144.99;44.02;52003.78;5006962;28;19957;-78
2022/08/27 11:56:10;;;;;;;;;;;;;;;-144.99;43.15;51967.09;5010479;28;19972;-78
2022/08/27 11:58:37;;;;;;;;;;;;;;;-144.99;43.11;51973.22;5011699;28;19969;-78
2022/08/27 12:01:14;;;;;;;;;;;;;;;-144.99;42.05;51910.03;5009323;28;19918;-77
2022/08/27 12:03:41;;;;;;;;;;;;;;;-144.99;41.24;51950.78;5000969;28;19937;-78
2022/08/27 12:06:09;;;;;;;;;;;;;;;-144.99;39.94;51905.97;4999316;28;19930;-78
2022/08/27 12:08:37;;;;;;;;;;;;;;;-144.99;39.05;51885.56;4985078;28;19958;-79
2022/08/27 12:11:12;;;;;;;;;;;;;;;-144.99;38.15;51901.88;4985637;28;19936;-79
2022/08/27 12:13:40;;;;;;;;;;;;;;;-144.99;37.57;51871.31;4993958;28;19930;-80
2022/08/27 12:16:15;;;;;;;;;;;;;;;-144.99;37.03;51889.66;4984812;28;19934;-79
2022/08/27 12:18:51;;;;;;;;;;;;;;;-144.99;37.61;51897.81;4985454;28;20052;-78
2022/08/27 12:21:22;;;;;;;;;;;;;;;-144.99;36.93;51895.75;4982337;28;19964;-79
2022/08/27 12:24:00;;;;;;;;;;;;;;;-144.99;35.62;51844.81;4989370;28;20009;-78
2022/08/27 12:26:30;;;;;;;;;;;;;;;-144.99;35.67;51885.56;4986985;28;20466;-79
2022/08/27 12:29:11;;;;;;;;;;;;;;;-144.99;35.66;51840.75;4985425;28;19936;-79
2022/08/27 12:31:41;;;;;;;;;;;;;;;-144.99;35.55;51852.97;4983388;28;20088;-78
2022/08/27 12:34:13;;;;;;;;;;;;;;;-144.99;35.33;51848.91;4982687;28;20017;-79
2022/08/27 12:36:40;;;;;;;;;;;;;;;-144.99;35.46;51873.34;4984538;28;20017;-79
2022/08/27 12:39:12;;;;;;;;;;;;;;;-144.99;34.92;51832.59;4988503;28;19926;-78
2022/08/27 12:41:44;;;;;;;;;;;;;;;-144.99;34.73;51846.84;4989421;28;19974;-78
2022/08/27 12:44:11;;;;;;;;;;;;;;;-144.99;34.88;51850.94;4996709;28;19926;-79